»·PEaware :: FJS1399 KHLN-KGPI

FJS1399 :: KHLN-KGPI

FLIGHT INFORMATION

Flight Status: Arrived
Operator: Unknown
More flights by this operator :: More flights under this callsign
Pilot: David C. (16084)
Aircraft: BOMBARDIER BD-100 CHALLENGER 300
(CL30)
More flights by this aircraft type
Origin: KHLN Helena Regl
United States
Destination: KGPI Glacier Park Intl
United States
More flights between these airports :: More routes between these airports
Route: SIEBE3 SIEBE V257 WOKEN V365 CHOTE V536 FCA
File this flight plan on PilotEdge
Remarks:
Altitude:
(Current/Filed)
20,000ft
Speed:
(Current/Filed)
407kts
Departed: 27-Jun-18 11:08 AM
Arrived: 27-Jun-18 11:42 AM
Distance/Time
Traveled:
138nm/0:34
Distance/Time
To Go:
Arrived

Flight Plot

Page will automatically refresh every two minutes.

Flight plan parsing failed; only flown route is shown


Map Options




Map Legend


Flown Route
Filed Route
Departure Airport
Arrival Airport
Navaid (VOR, NDB)
Fix

Horizontal Profiles

Position Reports

Time Latitude Longitude Heading Altitude Ground
Speed
27-Jun-18 10:34 46.602872 -111.994863 269 3882ft 0kts
27-Jun-18 10:35 46.602872 -111.994863 269 3882ft 0kts
27-Jun-18 10:36 46.602872 -111.994863 269 3882ft 0kts
27-Jun-18 10:37 46.602872 -111.994863 269 3882ft 0kts
27-Jun-18 10:38 46.602872 -111.994863 269 3882ft 0kts
27-Jun-18 10:39 46.602872 -111.994863 269 3882ft 0kts
27-Jun-18 10:40 46.602872 -111.994863 269 3882ft 0kts
27-Jun-18 10:41 46.602872 -111.994863 269 3882ft 0kts
27-Jun-18 10:42 46.602872 -111.994863 269 3882ft 0kts
27-Jun-18 10:43 46.602872 -111.994863 269 3882ft 0kts
27-Jun-18 10:44 46.602872 -111.994863 269 3882ft 0kts
27-Jun-18 10:45 46.602872 -111.994863 269 3882ft 0kts
27-Jun-18 10:46 46.602872 -111.994863 269 3882ft 0kts
27-Jun-18 10:47 46.602872 -111.994863 269 3882ft 0kts
27-Jun-18 10:48 46.602872 -111.994863 269 3882ft 0kts
27-Jun-18 10:49 46.602872 -111.994863 269 3882ft 0kts
27-Jun-18 10:50 46.602872 -111.994863 269 3882ft 0kts
27-Jun-18 10:51 46.602872 -111.994863 269 3882ft 0kts
27-Jun-18 10:52 46.602872 -111.994863 269 3882ft 0kts
27-Jun-18 10:53 46.602872 -111.994863 269 3882ft 0kts
27-Jun-18 10:54 46.602872 -111.994863 269 3882ft 0kts
27-Jun-18 10:55 46.602872 -111.994863 269 3882ft 0kts
27-Jun-18 10:56 46.602872 -111.994863 269 3882ft 0kts
27-Jun-18 10:57 46.602871 -111.994863 269 3882ft 0kts
27-Jun-18 10:58 46.602871 -111.994863 269 3882ft 0kts
27-Jun-18 10:59 46.602871 -111.994863 269 3882ft 0kts
27-Jun-18 11:00 46.602871 -111.994863 269 3882ft 0kts
27-Jun-18 11:01 46.602880 -111.994977 285 3882ft 1kts
27-Jun-18 11:02 46.602883 -111.994992 287 3882ft 0kts
27-Jun-18 11:03 46.602883 -111.994992 287 3882ft 0kts
27-Jun-18 11:04 46.603247 -111.996221 297 3882ft 8kts
27-Jun-18 11:05 46.606604 -111.997645 347 3882ft 17kts
27-Jun-18 11:06 46.607484 -111.997964 345 3882ft 0kts
27-Jun-18 11:07 46.607984 -111.997851 42 3882ft 5kts
27-Jun-18 11:08 46.607525 -111.991895 103 3882ft 88kts
27-Jun-18 11:09 46.612828 -111.925452 34 6409ft 233kts
27-Jun-18 11:10 46.659277 -111.968415 281 9413ft 225kts
27-Jun-18 11:11 46.705493 -112.027797 333 9614ft 260kts
27-Jun-18 11:12 46.769676 -112.070313 332 8995ft 236kts
27-Jun-18 11:13 46.828665 -112.111733 331 9001ft 236kts
27-Jun-18 11:14 46.885115 -112.156605 0 9000ft 239kts
27-Jun-18 11:15 46.944364 -112.117196 56 8983ft 238kts
27-Jun-18 11:16 46.984315 -112.041569 8 12448ft 251kts
27-Jun-18 11:17 47.060390 -112.046529 349 16399ft 302kts
27-Jun-18 11:18 47.145463 -112.059775 346 20037ft 331kts
27-Jun-18 11:19 47.252844 -112.079726 347 20065ft 418kts
27-Jun-18 11:20 47.367550 -112.101892 347 20040ft 415kts
27-Jun-18 11:21 47.481572 -112.124357 347 20037ft 415kts
27-Jun-18 11:22 47.595622 -112.146988 347 20033ft 415kts
27-Jun-18 11:23 47.676867 -112.245776 298 20026ft 389kts
27-Jun-18 11:24 47.726072 -112.386867 293 20006ft 387kts
27-Jun-18 11:25 47.769529 -112.533131 291 20005ft 387kts
27-Jun-18 11:26 47.810984 -112.679717 290 20010ft 387kts
27-Jun-18 11:27 47.852101 -112.827639 290 20009ft 387kts
27-Jun-18 11:28 47.893236 -112.976928 289 20009ft 393kts
27-Jun-18 11:29 47.934676 -113.128512 289 20019ft 395kts
27-Jun-18 11:30 47.975844 -113.280087 289 20041ft 395kts
27-Jun-18 11:31 48.016851 -113.432033 289 20043ft 394kts
27-Jun-18 11:32 48.057572 -113.583905 289 20034ft 395kts
27-Jun-18 11:33 48.097259 -113.732857 288 17860ft 377kts
27-Jun-18 11:34 48.134892 -113.875016 288 15395ft 363kts
27-Jun-18 11:35 48.171044 -114.012397 289 12890ft 349kts
27-Jun-18 11:36 48.203922 -114.137988 288 10492ft 337kts
27-Jun-18 11:37 48.245383 -114.257527 337 8570ft 293kts
27-Jun-18 11:38 48.323214 -114.208459 34 5544ft 298kts
27-Jun-18 11:39 48.382094 -114.193458 258 5034ft 196kts
27-Jun-18 11:40 48.341824 -114.222435 216 3692ft 140kts
27-Jun-18 11:41 48.314364 -114.251298 210 2984ft 96kts
27-Jun-18 11:42 48.306284 -114.258584 119 2984ft 10kts
27-Jun-18 11:43 48.306782 -114.257331 32 2984ft 13kts
27-Jun-18 11:44 48.310280 -114.251961 106 2984ft 16kts

Navigation Log

Ident Type
Flight plan parsing failed, navigation log unavailable